sensor_id;sensor_type;location;lat;lon;timestamp;pressure;altitude;pressure_sealevel;temperature;humidity
49311;BME280;35177;45.900;5.946;2023-03-14T00:00:46;96624.34;;;8.67;100.00
49311;BME280;35177;45.900;5.946;2023-03-14T00:03:12;96618.16;;;8.79;100.00
49311;BME280;35177;45.900;5.946;2023-03-14T00:05:37;96604.63;;;8.86;100.00
49311;BME280;35177;45.900;5.946;2023-03-14T00:08:03;96615.22;;;8.58;100.00
49311;BME280;35177;45.900;5.946;2023-03-14T00:10:28;96632.94;;;8.30;100.00
49311;BME280;35177;45.900;5.946;2023-03-14T00:12:54;96649.88;;;8.38;100.00
49311;BME280;35177;45.900;5.946;2023-03-14T00:15:19;96668.78;;;8.53;100.00
49311;BME280;35177;45.900;5.946;2023-03-14T00:17:45;96694.47;;;8.62;100.00
49311;BME280;35177;45.900;5.946;2023-03-14T00:20:11;96701.00;;;8.75;100.00
49311;BME280;35177;45.900;5.946;2023-03-14T00:22:38;96713.69;;;8.76;100.00
49311;BME280;35177;45.900;5.946;2023-03-14T00:25:06;96710.41;;;8.74;100.00
49311;BME280;35177;45.900;5.946;2023-03-14T00:27:32;96707.00;;;8.68;100.00
49311;BME280;35177;45.900;5.946;2023-03-14T00:29:58;96709.09;;;8.54;100.00
49311;BME280;35177;45.900;5.946;2023-03-14T00:32:23;96719.31;;;8.27;100.00
49311;BME280;35177;45.900;5.946;2023-03-14T00:34:49;96722.06;;;8.27;100.00
49311;BME280;35177;45.900;5.946;2023-03-14T00:37:15;96725.97;;;8.26;100.00
49311;BME280;35177;45.900;5.946;2023-03-14T00:39:41;96726.28;;;8.25;100.00
49311;BME280;35177;45.900;5.946;2023-03-14T00:42:06;96730.69;;;8.34;100.00
49311;BME280;35177;45.900;5.946;2023-03-14T00:44:32;96745.84;;;8.46;100.00
49311;BME280;35177;45.900;5.946;2023-03-14T00:46:58;96732.59;;;8.16;100.00
49311;BME280;35177;45.900;5.946;2023-03-14T00:49:23;96718.63;;;8.13;100.00
49311;BME280;35177;45.900;5.946;2023-03-14T00:51:49;96712.59;;;8.28;100.00
49311;BME280;35177;45.900;5.946;2023-03-14T00:54:14;96708.38;;;8.22;100.00
49311;BME280;35177;45.900;5.946;2023-03-14T00:56:40;96710.50;;;8.25;100.00
49311;BME280;35177;45.900;5.946;2023-03-14T00:59:05;96718.63;;;8.30;100.00
49311;BME280;35177;45.900;5.946;2023-03-14T01:01:31;96724.56;;;8.46;100.00
49311;BME280;35177;45.900;5.946;2023-03-14T01:03:56;96710.88;;;8.50;100.00
49311;BME280;35177;45.900;5.946;2023-03-14T01:06:25;96701.47;;;8.51;100.00
49311;BME280;35177;45.900;5.946;2023-03-14T01:08:52;96692.66;;;8.49;100.00
49311;BME280;35177;45.900;5.946;2023-03-14T01:11:20;96698.53;;;8.56;100.00
49311;BME280;35177;45.900;5.946;2023-03-14T01:13:47;96690.25;;;8.56;100.00
49311;BME280;35177;45.900;5.946;2023-03-14T01:16:14;96672.00;;;8.64;100.00
49311;BME280;35177;45.900;5.946;2023-03-14T01:18:40;96679.50;;;8.63;100.00
49311;BME280;35177;45.900;5.946;2023-03-14T01:21:15;96674.13;;;8.58;100.00
49311;BME280;35177;45.900;5.946;2023-03-14T01:23:42;96674.09;;;8.41;100.00
49311;BME280;35177;45.900;5.946;2023-03-14T01:26:09;96682.41;;;8.41;100.00
49311;BME280;35177;45.900;5.946;2023-03-14T01:28:35;96673.94;;;8.46;100.00
49311;BME280;35177;45.900;5.946;2023-03-14T01:31:05;96666.16;;;8.48;100.00
49311;BME280;35177;45.900;5.946;2023-03-14T01:33:31;96664.22;;;8.57;100.00
49311;BME280;35177;45.900;5.946;2023-03-14T01:35:56;96660.41;;;8.44;100.00
49311;BME280;35177;45.900;5.946;2023-03-14T01:38:22;96658.31;;;8.32;100.00
49311;BME280;35177;45.900;5.946;2023-03-14T01:40:47;96651.50;;;8.30;100.00
49311;BME280;35177;45.900;5.946;2023-03-14T01:43:16;96634.75;;;8.26;100.00
49311;BME280;35177;45.900;5.946;2023-03-14T01:48:35;96649.03;;;8.28;100.00
49311;BME280;35177;45.900;5.946;2023-03-14T01:51:03;96637.00;;;8.33;100.00
49311;BME280;35177;45.900;5.946;2023-03-14T01:53:30;96625.47;;;8.40;100.00
49311;BME280;35177;45.900;5.946;2023-03-14T01:55:56;96610.69;;;8.53;100.00
49311;BME280;35177;45.900;5.946;2023-03-14T01:58:24;96596.88;;;8.53;100.00
49311;BME280;35177;45.900;5.946;2023-03-14T02:00:53;96594.75;;;8.50;100.00
49311;BME280;35177;45.900;5.946;2023-03-14T02:03:20;96595.69;;;8.45;100.00
49311;BME280;35177;45.900;5.946;2023-03-14T02:05:48;96600.75;;;8.43;100.00
49311;BME280;35177;45.900;5.946;2023-03-14T02:08:18;96598.13;;;8.38;100.00
49311;BME280;35177;45.900;5.946;2023-03-14T02:10:45;96591.47;;;8.22;100.00
49311;BME280;35177;45.900;5.946;2023-03-14T02:13:12;96595.22;;;8.26;100.00
49311;BME280;35177;45.900;5.946;2023-03-14T02:15:39;96576.34;;;8.45;100.00
49311;BME280;35177;45.900;5.946;2023-03-14T02:18:06;96582.06;;;8.49;100.00
49311;BME280;35177;45.900;5.946;2023-03-14T02:22:58;96573.94;;;8.52;100.00
49311;BME280;35177;45.900;5.946;2023-03-14T02:27:58;96572.78;;;8.27;100.00
49311;BME280;35177;45.900;5.946;2023-03-14T02:30:27;96573.44;;;8.24;100.00
49311;BME280;35177;45.900;5.946;2023-03-14T02:33:38;96562.03;;;8.26;100.00
49311;BME280;35177;45.900;5.946;2023-03-14T02:36:02;96551.16;;;8.29;100.00
49311;BME280;35177;45.900;5.946;2023-03-14T02:38:50;96541.38;;;8.32;100.00
49311;BME280;35177;45.900;5.946;2023-03-14T02:41:18;96540.25;;;8.42;100.00
49311;BME280;35177;45.900;5.946;2023-03-14T02:43:43;96537.31;;;8.38;100.00
49311;BME280;35177;45.900;5.946;2023-03-14T02:46:14;96543.84;;;8.33;100.00
49311;BME280;35177;45.900;5.946;2023-03-14T02:51:24;96536.19;;;8.30;100.00
49311;BME280;35177;45.900;5.946;2023-03-14T02:53:51;96537.66;;;8.28;100.00
49311;BME280;35177;45.900;5.946;2023-03-14T02:56:16;96528.22;;;8.29;100.00
49311;BME280;35177;45.900;5.946;2023-03-14T02:58:42;96527.91;;;8.30;100.00
49311;BME280;35177;45.900;5.946;2023-03-14T03:01:07;96523.69;;;8.24;100.00
49311;BME280;35177;45.900;5.946;2023-03-14T03:03:33;96522.72;;;8.20;100.00
49311;BME280;35177;45.900;5.946;2023-03-14T03:05:58;96521.56;;;8.30;100.00
49311;BME280;35177;45.900;5.946;2023-03-14T03:08:26;96508.56;;;8.22;100.00
49311;BME280;35177;45.900;5.946;2023-03-14T03:10:52;96507.78;;;8.21;100.00
49311;BME280;35177;45.900;5.946;2023-03-14T03:13:18;96510.38;;;8.17;100.00
49311;BME280;35177;45.900;5.946;2023-03-14T03:15:44;96515.56;;;8.19;100.00
49311;BME280;35177;45.900;5.946;2023-03-14T03:18:10;96507.28;;;8.19;100.00
49311;BME280;35177;45.900;5.946;2023-03-14T03:20:36;96501.44;;;8.12;100.00
49311;BME280;35177;45.900;5.946;2023-03-14T03:23:02;96501.75;;;8.10;100.00
49311;BME280;35177;45.900;5.946;2023-03-14T03:25:28;96494.78;;;8.04;100.00
49311;BME280;35177;45.900;5.946;2023-03-14T03:27:54;96492.34;;;8.11;100.00
49311;BME280;35177;45.900;5.946;2023-03-14T03:30:20;96482.75;;;8.09;100.00
49311;BME280;35177;45.900;5.946;2023-03-14T03:32:45;96487.13;;;8.10;100.00
49311;BME280;35177;45.900;5.946;2023-03-14T03:35:11;96494.78;;;8.04;100.00
49311;BME280;35177;45.900;5.946;2023-03-14T03:37:37;96480.81;;;8.00;100.00
49311;BME280;35177;45.900;5.946;2023-03-14T03:40:03;96483.56;;;8.09;100.00
49311;BME280;35177;45.900;5.946;2023-03-14T03:42:33;96473.78;;;8.12;100.00
49311;BME280;35177;45.900;5.946;2023-03-14T03:45:00;96472.31;;;8.14;100.00
49311;BME280;35177;45.900;5.946;2023-03-14T03:47:26;96472.31;;;8.23;100.00
49311;BME280;35177;45.900;5.946;2023-03-14T03:49:51;96469.72;;;8.18;100.00
49311;BME280;35177;45.900;5.946;2023-03-14T03:52:17;96467.63;;;8.15;100.00
49311;BME280;35177;45.900;5.946;2023-03-14T03:54:43;96472.00;;;8.16;100.00
49311;BME280;35177;45.900;5.946;2023-03-14T03:57:08;96471.69;;;8.09;100.00
49311;BME280;35177;45.900;5.946;2023-03-14T03:59:34;96464.22;;;8.09;100.00
49311;BME280;35177;45.900;5.946;2023-03-14T04:01:59;96464.56;;;7.99;100.00
49311;BME280;35177;45.900;5.946;2023-03-14T04:04:25;96463.56;;;8.03;100.00
49311;BME280;35177;45.900;5.946;2023-03-14T04:06:51;96455.94;;;8.00;100.00
49311;BME280;35177;45.900;5.946;2023-03-14T04:09:16;96439.69;;;7.99;100.00
49311;BME280;35177;45.900;5.946;2023-03-14T04:11:42;96418.56;;;7.94;100.00
49311;BME280;35177;45.900;5.946;2023-03-14T04:14:07;96415.31;;;7.92;100.00
49311;BME280;35177;45.900;5.946;2023-03-14T04:16:33;96415.31;;;7.92;100.00
49311;BME280;35177;45.900;5.946;2023-03-14T04:18:59;96412.53;;;7.92;100.00
49311;BME280;35177;45.900;5.946;2023-03-14T04:21:25;96408.66;;;7.93;100.00
49311;BME280;35177;45.900;5.946;2023-03-14T04:23:51;96410.75;;;7.87;100.00
49311;BME280;35177;45.900;5.946;2023-03-14T04:26:16;96415.81;;;7.85;100.00
49311;BME280;35177;45.900;5.946;2023-03-14T04:28:42;96401.00;;;7.90;100.00
49311;BME280;35177;45.900;5.946;2023-03-14T04:31:09;96381.19;;;7.97;100.00
49311;BME280;35177;45.900;5.946;2023-03-14T04:33:35;96377.13;;;7.94;100.00
49311;BME280;35177;45.900;5.946;2023-03-14T04:36:01;96356.66;;;7.95;100.00
49311;BME280;35177;45.900;5.946;2023-03-14T04:38:26;96344.13;;;7.98;100.00
49311;BME280;35177;45.900;5.946;2023-03-14T04:40:52;96350.97;;;7.92;100.00
49311;BME280;35177;45.900;5.946;2023-03-14T04:43:18;96349.50;;;7.94;100.00
49311;BME280;35177;45.900;5.946;2023-03-14T04:45:44;96353.41;;;7.93;100.00
49311;BME280;35177;45.900;5.946;2023-03-14T04:48:09;96344.94;;;7.98;100.00
49311;BME280;35177;45.900;5.946;2023-03-14T04:50:35;96332.75;;;7.99;100.00
49311;BME280;35177;45.900;5.946;2023-03-14T04:53:01;96333.88;;;7.98;100.00
49311;BME280;35177;45.900;5.946;2023-03-14T04:55:26;96330.94;;;8.03;100.00
49311;BME280;35177;45.900;5.946;2023-03-14T04:57:52;96333.66;;;8.12;100.00
49311;BME280;35177;45.900;5.946;2023-03-14T05:00:17;96335.13;;;8.10;100.00
49311;BME280;35177;45.900;5.946;2023-03-14T05:02:45;96351.41;;;8.02;100.00
49311;BME280;35177;45.900;5.946;2023-03-14T05:05:11;96348.53;;;7.99;100.00
49311;BME280;35177;45.900;5.946;2023-03-14T05:07:37;96353.75;;;7.92;100.00
49311;BME280;35177;45.900;5.946;2023-03-14T05:10:02;96359.91;;;7.88;100.00
49311;BME280;35177;45.900;5.946;2023-03-14T05:12:28;96358.63;;;7.86;100.00
49311;BME280;35177;45.900;5.946;2023-03-14T05:14:53;96364.44;;;7.93;100.00
49311;BME280;35177;45.900;5.946;2023-03-14T05:17:19;96361.00;;;7.96;100.00
49311;BME280;35177;45.900;5.946;2023-03-14T05:19:45;96347.88;;;7.93;100.00
49311;BME280;35177;45.900;5.946;2023-03-14T05:22:11;96353.59;;;7.79;100.00
49311;BME280;35177;45.900;5.946;2023-03-14T05:24:36;96351.78;;;7.83;100.00
49311;BME280;35177;45.900;5.946;2023-03-14T05:27:03;96353.59;;;7.79;100.00
49311;BME280;35177;45.900;5.946;2023-03-14T05:29:29;96358.16;;;7.66;100.00
49311;BME280;35177;45.900;5.946;2023-03-14T05:31:54;96361.91;;;7.53;100.00
49311;BME280;35177;45.900;5.946;2023-03-14T05:34:20;96359.66;;;7.55;100.00
49311;BME280;35177;45.900;5.946;2023-03-14T05:36:45;96365.00;;;7.60;100.00
49311;BME280;35177;45.900;5.946;2023-03-14T05:39:11;96375.25;;;7.60;100.00
49311;BME280;35177;45.900;5.946;2023-03-14T05:41:37;96370.34;;;7.65;100.00
49311;BME280;35177;45.900;5.946;2023-03-14T05:44:02;96372.16;;;7.61;100.00
49311;BME280;35177;45.900;5.946;2023-03-14T05:46:28;96361.88;;;7.70;100.00
49311;BME280;35177;45.900;5.946;2023-03-14T05:48:58;96375.38;;;7.54;100.00
49311;BME280;35177;45.900;5.946;2023-03-14T05:51:24;96375.53;;;7.58;100.00
49311;BME280;35177;45.900;5.946;2023-03-14T05:53:50;96373.44;;;7.55;100.00
49311;BME280;35177;45.900;5.946;2023-03-14T05:56:15;96386.44;;;7.46;100.00
49311;BME280;35177;45.900;5.946;2023-03-14T05:58:41;96392.78;;;7.46;100.00
49311;BME280;35177;45.900;5.946;2023-03-14T06:01:07;96396.34;;;7.38;100.00
49311;BME280;35177;45.900;5.946;2023-03-14T06:03:33;96396.69;;;7.36;100.00
49311;BME280;35177;45.900;5.946;2023-03-14T06:05:59;96414.53;;;7.30;100.00
49311;BME280;35177;45.900;5.946;2023-03-14T06:08:25;96418.25;;;7.34;100.00
49311;BME280;35177;45.900;5.946;2023-03-14T06:10:51;96403.00;;;7.37;100.00
49311;BME280;35177;45.900;5.946;2023-03-14T06:13:17;96396.19;;;7.34;100.00
49311;BME280;35177;45.900;5.946;2023-03-14T06:15:43;96390.03;;;7.37;100.00
49311;BME280;35177;45.900;5.946;2023-03-14T06:18:08;96380.28;;;7.40;100.00
49311;BME280;35177;45.900;5.946;2023-03-14T06:20:38;96383.50;;;7.33;100.00
49311;BME280;35177;45.900;5.946;2023-03-14T06:23:08;96403.00;;;7.28;100.00
49311;BME280;35177;45.900;5.946;2023-03-14T06:25:34;96402.50;;;7.26;100.00
49311;BME280;35177;45.900;5.946;2023-03-14T06:28:00;96395.34;;;7.25;100.00
49311;BME280;35177;45.900;5.946;2023-03-14T06:30:26;96412.75;;;7.17;100.00
49311;BME280;35177;45.900;5.946;2023-03-14T06:32:52;96415.16;;;7.10;100.00
49311;BME280;35177;45.900;5.946;2023-03-14T06:35:17;96426.81;;;7.06;100.00
49311;BME280;35177;45.900;5.946;2023-03-14T06:37:43;96428.94;;;7.10;100.00
49311;BME280;35177;45.900;5.946;2023-03-14T06:40:10;96432.22;;;7.12;100.00
49311;BME280;35177;45.900;5.946;2023-03-14T06:42:37;96432.50;;;7.10;100.00
49311;BME280;35177;45.900;5.946;2023-03-14T06:45:03;96429.44;;;7.12;100.00
49311;BME280;35177;45.900;5.946;2023-03-14T06:47:29;96433.34;;;7.11;100.00
49311;BME280;35177;45.900;5.946;2023-03-14T06:49:55;96432.06;;;7.17;100.00
49311;BME280;35177;45.900;5.946;2023-03-14T06:52:20;96435.44;;;7.14;100.00
49311;BME280;35177;45.900;5.946;2023-03-14T06:54:46;96431.38;;;7.20;100.00
49311;BME280;35177;45.900;5.946;2023-03-14T06:57:11;96438.22;;;7.22;100.00
49311;BME280;35177;45.900;5.946;2023-03-14T06:59:37;96438.38;;;7.17;100.00
49311;BME280;35177;45.900;5.946;2023-03-14T07:02:02;96448.94;;;7.15;100.00
49311;BME280;35177;45.900;5.946;2023-03-14T07:04:28;96451.19;;;7.13;100.00
49311;BME280;35177;45.900;5.946;2023-03-14T07:06:53;96448.59;;;7.08;100.00
49311;BME280;35177;45.900;5.946;2023-03-14T07:09:19;96448.59;;;7.08;100.00
49311;BME280;35177;45.900;5.946;2023-03-14T07:11:45;96459.91;;;7.06;100.00
49311;BME280;35177;45.900;5.946;2023-03-14T07:14:10;96454.41;;;7.06;100.00
49311;BME280;35177;45.900;5.946;2023-03-14T07:16:37;96461.09;;;7.14;100.00
49311;BME280;35177;45.900;5.946;2023-03-14T07:19:03;96455.44;;;7.19;100.00
49311;BME280;35177;45.900;5.946;2023-03-14T07:21:28;96461.13;;;7.23;100.00
49311;BME280;35177;45.900;5.946;2023-03-14T07:23:54;96475.06;;;7.18;100.00
49311;BME280;35177;45.900;5.946;2023-03-14T07:26:22;96475.84;;;7.10;100.00
49311;BME280;35177;45.900;5.946;2023-03-14T07:28:48;96485.25;;;7.08;100.00
49311;BME280;35177;45.900;5.946;2023-03-14T07:31:14;96483.47;;;7.13;100.00
49311;BME280;35177;45.900;5.946;2023-03-14T07:33:39;96490.97;;;7.21;100.00
49311;BME280;35177;45.900;5.946;2023-03-14T07:36:05;96490.31;;;7.15;100.00
49311;BME280;35177;45.900;5.946;2023-03-14T07:38:31;96495.16;;;7.10;100.00
49311;BME280;35177;45.900;5.946;2023-03-14T07:41:03;96498.06;;;7.04;100.00
49311;BME280;35177;45.900;5.946;2023-03-14T07:43:29;96504.06;;;7.06;100.00
49311;BME280;35177;45.900;5.946;2023-03-14T07:45:55;96510.56;;;7.02;100.00
49311;BME280;35177;45.900;5.946;2023-03-14T07:48:20;96519.50;;;7.07;100.00
49311;BME280;35177;45.900;5.946;2023-03-14T07:50:54;96514.16;;;7.20;100.00
49311;BME280;35177;45.900;5.946;2023-03-14T07:53:20;96513.03;;;7.21;100.00
49311;BME280;35177;45.900;5.946;2023-03-14T07:55:46;96524.59;;;7.32;100.00
49311;BME280;35177;45.900;5.946;2023-03-14T07:58:13;96535.78;;;7.27;100.00
49311;BME280;35177;45.900;5.946;2023-03-14T08:00:38;96532.69;;;7.28;100.00
49311;BME280;35177;45.900;5.946;2023-03-14T08:03:04;96536.16;;;7.43;100.00
49311;BME280;35177;45.900;5.946;2023-03-14T08:05:29;96537.28;;;7.42;100.00
49311;BME280;35177;45.900;5.946;2023-03-14T08:07:55;96543.94;;;7.40;100.00
49311;BME280;35177;45.900;5.946;2023-03-14T08:10:21;96545.59;;;7.50;100.00
49311;BME280;35177;45.900;5.946;2023-03-14T08:12:50;96558.78;;;7.62;100.00
49311;BME280;35177;45.900;5.946;2023-03-14T08:15:16;96545.94;;;7.58;100.00
49311;BME280;35177;45.900;5.946;2023-03-14T08:17:41;96554.03;;;7.54;100.00
49311;BME280;35177;45.900;5.946;2023-03-14T08:20:07;96549.47;;;7.49;100.00
49311;BME280;35177;45.900;5.946;2023-03-14T08:22:36;96540.88;;;7.51;100.00
49311;BME280;35177;45.900;5.946;2023-03-14T08:25:32;96563.94;;;7.46;100.00
49311;BME280;35177;45.900;5.946;2023-03-14T08:27:58;96567.16;;;7.48;100.00
49311;BME280;35177;45.900;5.946;2023-03-14T08:30:23;96566.88;;;7.50;100.00
49311;BME280;35177;45.900;5.946;2023-03-14T08:32:49;96562.47;;;7.49;100.00
49311;BME280;35177;45.900;5.946;2023-03-14T08:35:15;96562.81;;;7.56;100.00
49311;BME280;35177;45.900;5.946;2023-03-14T08:37:41;96556.63;;;7.59;100.00
49311;BME280;35177;45.900;5.946;2023-03-14T08:40:07;96565.44;;;7.61;100.00
49311;BME280;35177;45.900;5.946;2023-03-14T08:42:33;96565.94;;;7.63;100.00
49311;BME280;35177;45.900;5.946;2023-03-14T08:44:59;96568.81;;;7.58;100.00
49311;BME280;35177;45.900;5.946;2023-03-14T08:47:25;96570.28;;;7.55;100.00
49311;BME280;35177;45.900;5.946;2023-03-14T08:49:50;96570.94;;;7.61;100.00
49311;BME280;35177;45.900;5.946;2023-03-14T08:52:16;96576.78;;;7.60;100.00
49311;BME280;35177;45.900;5.946;2023-03-14T08:54:43;96593.19;;;7.56;100.00
49311;BME280;35177;45.900;5.946;2023-03-14T08:57:09;96606.81;;;7.52;100.00
49311;BME280;35177;45.900;5.946;2023-03-14T08:59:34;96610.53;;;7.48;100.00
49311;BME280;35177;45.900;5.946;2023-03-14T09:02:01;96615.56;;;7.46;100.00
49311;BME280;35177;45.900;5.946;2023-03-14T09:04:31;96609.25;;;7.54;100.00
49311;BME280;35177;45.900;5.946;2023-03-14T09:06:57;96622.88;;;7.50;100.00
49311;BME280;35177;45.900;5.946;2023-03-14T09:09:25;96629.38;;;7.54;100.00
49311;BME280;35177;45.900;5.946;2023-03-14T09:11:54;96631.97;;;7.51;100.00
49311;BME280;35177;45.900;5.946;2023-03-14T09:14:19;96635.19;;;7.44;100.00
49311;BME280;35177;45.900;5.946;2023-03-14T09:16:45;96644.13;;;7.41;100.00
49311;BME280;35177;45.900;5.946;2023-03-14T09:19:10;96652.88;;;7.34;100.00
49311;BME280;35177;45.900;5.946;2023-03-14T09:21:36;96655.59;;;7.26;100.00
49311;BME280;35177;45.900;5.946;2023-03-14T09:24:02;96666.78;;;7.20;100.00
49311;BME280;35177;45.900;5.946;2023-03-14T09:26:28;96664.31;;;7.19;100.00
49311;BME280;35177;45.900;5.946;2023-03-14T09:28:53;96665.13;;;7.19;100.00
49311;BME280;35177;45.900;5.946;2023-03-14T09:31:19;96659.09;;;7.17;100.00
49311;BME280;35177;45.900;5.946;2023-03-14T09:33:44;96679.25;;;7.18;100.00
49311;BME280;35177;45.900;5.946;2023-03-14T09:36:10;96689.13;;;7.19;100.00
49311;BME280;35177;45.900;5.946;2023-03-14T09:38:36;96692.91;;;7.23;100.00
49311;BME280;35177;45.900;5.946;2023-03-14T09:41:31;96690.94;;;7.23;100.00
49311;BME280;35177;45.900;5.946;2023-03-14T09:46:43;96696.97;;;7.26;100.00
49311;BME280;35177;45.900;5.946;2023-03-14T09:49:34;96708.56;;;7.36;100.00
49311;BME280;35177;45.900;5.946;2023-03-14T09:52:05;96712.78;;;7.34;100.00
49311;BME280;35177;45.900;5.946;2023-03-14T09:54:39;96714.22;;;7.31;100.00
49311;BME280;35177;45.900;5.946;2023-03-14T09:57:15;96714.75;;;7.42;100.00
49311;BME280;35177;45.900;5.946;2023-03-14T09:59:44;96718.03;;;7.44;100.00
49311;BME280;35177;45.900;5.946;2023-03-14T10:02:22;96730.69;;;7.45;100.00
49311;BME280;35177;45.900;5.946;2023-03-14T10:04:50;96735.00;;;7.60;100.00
49311;BME280;35177;45.900;5.946;2023-03-14T10:07:23;96746.22;;;7.64;100.00
49311;BME280;35177;45.900;5.946;2023-03-14T10:09:51;96746.47;;;7.85;100.00
49311;BME280;35177;45.900;5.946;2023-03-14T10:12:17;96763.06;;;7.94;100.00
49311;BME280;35177;45.900;5.946;2023-03-14T10:14:49;96809.28;;;8.02;100.00
49311;BME280;35177;45.900;5.946;2023-03-14T10:17:17;96840.72;;;7.83;100.00
49311;BME280;35177;45.900;5.946;2023-03-14T10:19:58;96838.03;;;7.69;100.00
49311;BME280;35177;45.900;5.946;2023-03-14T10:22:33;96821.56;;;7.64;100.00
49311;BME280;35177;45.900;5.946;2023-03-14T10:25:05;96814.13;;;7.42;100.00
49311;BME280;35177;45.900;5.946;2023-03-14T10:27:35;96809.56;;;7.37;100.00
49311;BME280;35177;45.900;5.946;2023-03-14T10:30:06;96818.03;;;7.41;100.00
49311;BME280;35177;45.900;5.946;2023-03-14T10:32:38;96816.16;;;7.28;100.00
49311;BME280;35177;45.900;5.946;2023-03-14T10:37:50;96846.84;;;7.80;100.00
49311;BME280;35177;45.900;5.946;2023-03-14T10:40:18;96846.13;;;7.97;100.00
49311;BME280;35177;45.900;5.946;2023-03-14T10:42:44;96869.63;;;8.09;100.00
49311;BME280;35177;45.900;5.946;2023-03-14T10:45:32;96873.88;;;8.15;100.00
49311;BME280;35177;45.900;5.946;2023-03-14T10:48:05;96898.69;;;8.06;100.00
49311;BME280;35177;45.900;5.946;2023-03-14T10:50:32;96899.16;;;7.99;100.00
49311;BME280;35177;45.900;5.946;2023-03-14T10:53:02;96917.00;;;7.93;100.00
49311;BME280;35177;45.900;5.946;2023-03-14T10:55:41;96917.69;;;7.76;100.00
49311;BME280;35177;45.900;5.946;2023-03-14T10:58:27;96929.09;;;7.83;100.00
49311;BME280;35177;45.900;5.946;2023-03-14T11:01:05;96929.16;;;7.92;100.00
49311;BME280;35177;45.900;5.946;2023-03-14T11:03:35;96924.00;;;7.99;100.00
49311;BME280;35177;45.900;5.946;2023-03-14T11:06:21;96932.91;;;7.96;100.00
49311;BME280;35177;45.900;5.946;2023-03-14T11:08:57;96933.38;;;7.90;100.00
49311;BME280;35177;45.900;5.946;2023-03-14T11:11:31;96946.72;;;7.96;100.00
49311;BME280;35177;45.900;5.946;2023-03-14T11:27:43;96980.88;;;8.23;100.00
49311;BME280;35177;45.900;5.946;2023-03-14T11:31:04;96981.03;;;8.18;100.00
49311;BME280;35177;45.900;5.946;2023-03-14T11:33:47;96982.81;;;8.14;100.00
49311;BME280;35177;45.900;5.946;2023-03-14T11:36:22;97001.44;;;8.08;100.00
49311;BME280;35177;45.900;5.946;2023-03-14T11:38:55;96998.16;;;8.06;100.00
49311;BME280;35177;45.900;5.946;2023-03-14T11:41:54;97004.84;;;8.05;100.00
49311;BME280;35177;45.900;5.946;2023-03-14T11:44:25;97009.59;;;8.13;100.00
49311;BME280;35177;45.900;5.946;2023-03-14T11:46:59;97004.69;;;8.33;100.00
49311;BME280;35177;45.900;5.946;2023-03-14T11:52:17;96991.94;;;8.23;100.00
49311;BME280;35177;45.900;5.946;2023-03-14T11:54:56;96987.97;;;8.38;100.00
49311;BME280;35177;45.900;5.946;2023-03-14T11:57:24;96992.50;;;8.34;100.00
49311;BME280;35177;45.900;5.946;2023-03-14T12:02:24;97011.00;;;8.47;100.00
49311;BME280;35177;45.900;5.946;2023-03-14T12:10:42;97010.78;;;8.44;100.00
49311;BME280;35177;45.900;5.946;2023-03-14T12:13:11;97014.75;;;8.51;100.00
49311;BME280;35177;45.900;5.946;2023-03-14T12:15:41;97017.91;;;8.59;100.00
49311;BME280;35177;45.900;5.946;2023-03-14T12:18:37;97021.22;;;8.70;100.00
49311;BME280;35177;45.900;5.946;2023-03-14T12:21:04;97024.75;;;8.39;100.00
49311;BME280;35177;45.900;5.946;2023-03-14T12:23:57;97039.97;;;8.27;100.00
49311;BME280;35177;45.900;5.946;2023-03-14T12:26:24;97042.53;;;8.24;100.00
49311;BME280;35177;45.900;5.946;2023-03-14T12:37:10;97054.63;;;7.91;100.00
49311;BME280;35177;45.900;5.946;2023-03-14T12:39:58;97044.75;;;8.58;100.00
49311;BME280;35177;45.900;5.946;2023-03-14T12:45:24;97057.03;;;8.75;100.00
49311;BME280;35177;45.900;5.946;2023-03-14T12:50:34;97030.53;;;8.51;100.00
49311;BME280;35177;45.900;5.946;2023-03-14T12:58:53;97028.47;;;8.57;100.00
49311;BME280;35177;45.900;5.946;2023-03-14T13:01:20;97026.78;;;8.78;100.00
49311;BME280;35177;45.900;5.946;2023-03-14T13:03:47;97027.09;;;8.77;100.00
49311;BME280;35177;45.900;5.946;2023-03-14T13:06:44;97024.50;;;9.12;100.00
49311;BME280;35177;45.900;5.946;2023-03-14T13:11:58;97033.03;;;8.93;100.00
49311;BME280;35177;45.900;5.946;2023-03-14T13:14:28;97020.84;;;8.62;100.00
49311;BME280;35177;45.900;5.946;2023-03-14T13:16:53;97018.50;;;8.47;100.00
49311;BME280;35177;45.900;5.946;2023-03-14T13:19:23;97019.44;;;8.74;100.00
49311;BME280;35177;45.900;5.946;2023-03-14T13:21:50;97016.47;;;9.02;100.00
49311;BME280;35177;45.900;5.946;2023-03-14T13:24:24;97009.94;;;8.97;100.00
49311;BME280;35177;45.900;5.946;2023-03-14T13:26:53;97011.34;;;9.35;100.00
49311;BME280;35177;45.900;5.946;2023-03-14T13:29:21;97010.38;;;9.31;100.00
49311;BME280;35177;45.900;5.946;2023-03-14T13:31:55;97008.03;;;9.15;100.00
49311;BME280;35177;45.900;5.946;2023-03-14T13:34:29;97010.22;;;9.36;100.00
49311;BME280;35177;45.900;5.946;2023-03-14T13:36:54;97001.19;;;9.13;100.00
49311;BME280;35177;45.900;5.946;2023-03-14T13:39:22;96999.34;;;8.99;100.00
49311;BME280;35177;45.900;5.946;2023-03-14T13:41:51;96992.59;;;9.14;100.00
49311;BME280;35177;45.900;5.946;2023-03-14T13:44:39;96990.06;;;8.95;100.00
49311;BME280;35177;45.900;5.946;2023-03-14T13:47:10;96996.34;;;8.78;100.00
49311;BME280;35177;45.900;5.946;2023-03-14T13:49:39;97009.34;;;8.69;100.00
49311;BME280;35177;45.900;5.946;2023-03-14T13:52:36;97011.59;;;8.67;100.00
49311;BME280;35177;45.900;5.946;2023-03-14T13:55:03;97023.25;;;8.55;100.00
49311;BME280;35177;45.900;5.946;2023-03-14T14:00:27;97036.50;;;8.67;100.00
49311;BME280;35177;45.900;5.946;2023-03-14T14:03:00;97026.72;;;8.92;100.00
49311;BME280;35177;45.900;5.946;2023-03-14T14:05:27;97008.16;;;8.16;100.00
49311;BME280;35177;45.900;5.946;2023-03-14T14:07:54;96994.97;;;8.13;100.00
49311;BME280;35177;45.900;5.946;2023-03-14T14:10:20;96996.53;;;7.82;100.00
49311;BME280;35177;45.900;5.946;2023-03-14T14:12:47;97003.16;;;7.95;100.00